createdAt,value
2022-07-29T00:01:59.277Z,100347.19
2022-07-29T00:07:02.061Z,100339.19
2022-07-29T00:12:06.983Z,100342.69
2022-07-29T00:17:12.611Z,100342.28
2022-07-29T00:22:21.982Z,100325.06
2022-07-29T00:27:26.171Z,100313.16
2022-07-29T00:32:29.007Z,100299.03
2022-07-29T00:37:31.803Z,100282.84
2022-07-29T00:42:45.154Z,100282.03
2022-07-29T00:47:48.084Z,100275.66
2022-07-29T00:52:51.079Z,100276.28
2022-07-29T00:57:55.817Z,100270.56
2022-07-29T01:02:58.671Z,100275.50
2022-07-29T01:08:01.794Z,100266.03
2022-07-29T01:13:08.486Z,100261.97
2022-07-29T01:18:18.203Z,100265.63
2022-07-29T01:23:49.087Z,100261.53
2022-07-29T01:29:07.428Z,100258.25
2022-07-29T01:34:15.937Z,100252.13
2022-07-29T01:39:21.495Z,100257.66
2022-07-29T01:44:31.821Z,100260.09
2022-07-29T01:49:38.198Z,100249.63
2022-07-29T01:54:44.057Z,100250.25
2022-07-29T01:59:52.017Z,100250.25
2022-07-29T02:04:55.590Z,100240.84
2022-07-29T02:09:59.794Z,100237.97
2022-07-29T02:15:05.616Z,100239.59
2022-07-29T02:20:10.684Z,100236.28
2022-07-29T02:25:14.448Z,100232.41
2022-07-29T02:30:19.696Z,100228.50
2022-07-29T02:35:23.302Z,100225.00
2022-07-29T02:40:26.171Z,100222.16
2022-07-29T02:45:31.074Z,100228.50
2022-07-29T02:50:37.075Z,100222.34
2022-07-29T02:55:43.045Z,100213.56
2022-07-29T03:00:49.209Z,100214.56
2022-07-29T03:05:54.651Z,100219.44
2022-07-29T03:10:57.553Z,100216.19
2022-07-29T03:16:02.029Z,100215.97
2022-07-29T03:21:08.353Z,100205.53
2022-07-29T03:26:11.331Z,100217.81
2022-07-29T03:31:15.558Z,100212.47
2022-07-29T03:36:18.759Z,100208.63
2022-07-29T03:41:22.596Z,100212.69
2022-07-29T03:46:29.007Z,100219.22
2022-07-29T03:51:33.852Z,100215.94
2022-07-29T03:56:40.836Z,100222.84
2022-07-29T04:01:45.512Z,100232.44
2022-07-29T04:06:48.761Z,100232.28
2022-07-29T04:12:00.693Z,100231.22
2022-07-29T04:17:07.798Z,100224.28
2022-07-29T04:22:10.744Z,100229.59
2022-07-29T04:27:13.616Z,100227.75
2022-07-29T04:32:17.702Z,100234.75
2022-07-29T04:37:20.722Z,100227.63
2022-07-29T04:42:26.732Z,100238.06
2022-07-29T04:47:32.494Z,100240.16
2022-07-29T04:52:35.658Z,100244.66
2022-07-29T04:57:38.420Z,100239.59
2022-07-29T05:02:42.696Z,100236.31
2022-07-29T05:07:45.875Z,100237.78
2022-07-29T05:12:48.625Z,100237.16
2022-07-29T05:17:52.884Z,100237.38
2022-07-29T05:22:56.089Z,100233.47
2022-07-29T05:27:59.328Z,100237.38
2022-07-29T05:33:03.843Z,100233.88
2022-07-29T05:38:06.628Z,100242.66
2022-07-29T05:43:10.361Z,100239.19
2022-07-29T05:48:14.666Z,100238.56
2022-07-29T05:53:20.158Z,100241.44
2022-07-29T05:58:23.275Z,100241.06
2022-07-29T06:03:30.418Z,100238.34
2022-07-29T06:08:34.670Z,100239.75
2022-07-29T06:13:37.619Z,100235.41
2022-07-29T06:18:42.059Z,100232.56
2022-07-29T06:23:45.004Z,100239.31
2022-07-29T06:28:47.902Z,100231.25
2022-07-29T06:33:54.945Z,100238.78
2022-07-29T06:38:58.436Z,100234.81
2022-07-29T06:44:02.426Z,100228.22
2022-07-29T06:49:14.025Z,100223.50
2022-07-29T06:54:17.428Z,100243.19
2022-07-29T06:59:26.230Z,100230.50
2022-07-29T07:04:35.386Z,100231.53
2022-07-29T07:09:40.635Z,100230.28
2022-07-29T07:14:43.918Z,100238.69
2022-07-29T07:20:08.398Z,100233.50
2022-07-29T07:25:11.972Z,100229.91
2022-07-29T07:30:15.355Z,100227.91
2022-07-29T07:35:19.588Z,100236.03
2022-07-29T07:40:22.339Z,100231.16
2022-07-29T07:45:25.181Z,100229.78
2022-07-29T07:50:29.560Z,100222.97
2022-07-29T07:55:47.435Z,100225.09
2022-07-29T08:00:55.268Z,100222.31
2022-07-29T08:05:59.987Z,100221.56
2022-07-29T08:11:09.084Z,100225.75
2022-07-29T08:16:16.630Z,100223.16
2022-07-29T08:21:21.024Z,100219.97
2022-07-29T08:26:24.645Z,100218.47
2022-07-29T08:31:27.588Z,100222.88
2022-07-29T08:36:31.835Z,100223.00
2022-07-29T08:41:34.764Z,100218.53
2022-07-29T08:46:39.933Z,100214.09
2022-07-29T08:51:49.462Z,100208.41
2022-07-29T08:56:55.126Z,100210.78
2022-07-29T09:02:01.220Z,100201.31
2022-07-29T09:07:06.902Z,100196.00
2022-07-29T09:12:12.330Z,100195.66
2022-07-29T09:17:17.820Z,100188.44
2022-07-29T09:22:31.138Z,100188.03
2022-07-29T09:27:34.660Z,100185.81
2022-07-29T09:32:56.620Z,100181.97
2022-07-29T09:38:12.050Z,100181.47
2022-07-29T09:43:15.577Z,100187.66
2022-07-29T09:48:20.090Z,100182.59
2022-07-29T09:53:34.961Z,100175.75
2022-07-29T09:58:38.143Z,100175.69
2022-07-29T10:03:52.955Z,100171.63
2022-07-29T10:08:57.046Z,100167.69
2022-07-29T10:14:00.150Z,100163.25
2022-07-29T10:19:03.216Z,100153.22
2022-07-29T10:24:14.861Z,100162.13
2022-07-29T10:29:18.038Z,100155.03
2022-07-29T10:34:25.716Z,100149.84
2022-07-29T10:39:44.367Z,100140.19
2022-07-29T10:44:48.308Z,100138.59
2022-07-29T10:49:59.453Z,100140.13
2022-07-29T10:55:06.768Z,100129.97
2022-07-29T11:00:30.517Z,100123.91
2022-07-29T11:05:53.712Z,100131.72
2022-07-29T11:11:44.205Z,100127.66
2022-07-29T11:17:06.809Z,100129.53
2022-07-29T11:22:10.817Z,100122.50
2022-07-29T11:27:20.890Z,100114.31
2022-07-29T11:32:25.003Z,100109.88
2022-07-29T11:37:29.035Z,100105.56
2022-07-29T11:42:44.916Z,100112.06
2022-07-29T11:47:54.477Z,100105.63
2022-07-29T11:52:57.359Z,100095.00
2022-07-29T11:58:03.727Z,100092.22
2022-07-29T12:03:09.121Z,100084.72
2022-07-29T12:08:14.746Z,100084.81
2022-07-29T12:13:20.814Z,100068.72
2022-07-29T12:18:25.493Z,100056.47
2022-07-29T12:23:29.408Z,100055.53
2022-07-29T12:28:40.393Z,100061.13
2022-07-29T12:33:43.247Z,100047.53
2022-07-29T12:38:46.519Z,100046.69
2022-07-29T12:43:57.127Z,100031.81
2022-07-29T12:49:00.149Z,100038.13
2022-07-29T12:54:06.063Z,100041.81
2022-07-29T12:59:20.673Z,100037.31
2022-07-29T13:04:27.764Z,100046.88
2022-07-29T13:09:39.942Z,100046.38
2022-07-29T13:14:45.346Z,100042.94
2022-07-29T13:19:50.522Z,100033.34
2022-07-29T13:24:55.573Z,100030.56
2022-07-29T13:30:01.362Z,100026.81
2022-07-29T13:35:06.029Z,100018.16
2022-07-29T13:40:10.554Z,100021.41
2022-07-29T13:45:14.787Z,100017.56
2022-07-29T13:50:17.759Z,100000.25
2022-07-29T13:55:20.887Z,100003.06
2022-07-29T14:00:25.768Z,100007.59
2022-07-29T14:05:28.514Z,99998.22
2022-07-29T14:10:32.555Z,100000.63
2022-07-29T14:15:36.707Z,99992.47
2022-07-29T14:20:42.432Z,99997.94
2022-07-29T14:25:45.155Z,99996.09
2022-07-29T14:30:49.241Z,99990.88
2022-07-29T14:35:51.981Z,99982.53
2022-07-29T14:40:54.954Z,99988.38
2022-07-29T14:46:04.056Z,99985.94
2022-07-29T14:51:09.406Z,99990.09
2022-07-29T14:56:35.404Z,99987.19
2022-07-29T15:01:36.302Z,99987.75
2022-07-29T15:06:39.243Z,99991.00
2022-07-29T15:11:42.045Z,99992.88
2022-07-29T15:16:46.674Z,99995.06
2022-07-29T15:21:51.121Z,100013.72
2022-07-29T15:26:53.886Z,100045.47
2022-07-29T15:31:58.365Z,100051.91
2022-07-29T15:37:01.532Z,100063.34
2022-07-29T15:42:04.680Z,100060.34
2022-07-29T15:47:08.876Z,100070.78
2022-07-29T15:52:12.012Z,100058.75
2022-07-29T15:57:15.300Z,100059.19
2022-07-29T16:02:19.411Z,100060.44
2022-07-29T16:07:22.262Z,100047.81
2022-07-29T16:12:25.566Z,100047.34
2022-07-29T16:17:30.181Z,100045.78
2022-07-29T16:22:33.066Z,100033.47
2022-07-29T16:27:37.827Z,100040.56
2022-07-29T16:32:42.339Z,100033.09
2022-07-29T16:37:45.098Z,100016.16
2022-07-29T16:42:47.967Z,100006.72
2022-07-29T16:47:53.689Z,99995.78
2022-07-29T16:52:59.500Z,99993.50
2022-07-29T16:58:02.241Z,99983.72
2022-07-29T17:03:06.732Z,99986.66
2022-07-29T17:08:09.642Z,99988.13
2022-07-29T17:13:13.033Z,99971.78
2022-07-29T17:18:17.153Z,99973.78
2022-07-29T17:23:19.886Z,99970.78
2022-07-29T17:28:22.602Z,99973.56
2022-07-29T17:33:26.641Z,99988.22
2022-07-29T17:38:29.430Z,99977.75
2022-07-29T17:43:32.219Z,99980.34
2022-07-29T17:48:36.420Z,100001.81
2022-07-29T17:53:39.620Z,99999.13
2022-07-29T17:58:42.353Z,99998.31
2022-07-29T18:03:46.927Z,99997.56
2022-07-29T18:08:49.634Z,100005.19
2022-07-29T18:13:52.417Z,99996.81
2022-07-29T18:18:56.787Z,99997.31
2022-07-29T18:23:59.495Z,99993.47
2022-07-29T18:29:02.200Z,99992.09
2022-07-29T18:34:06.266Z,99994.19
2022-07-29T18:39:09.068Z,99998.94
2022-07-29T18:44:17.486Z,99997.69
2022-07-29T18:49:21.644Z,100000.50
2022-07-29T18:54:24.435Z,99992.63
2022-07-29T18:59:28.156Z,99997.09
2022-07-29T19:04:32.297Z,100001.19
2022-07-29T19:09:35.530Z,99993.03
2022-07-29T19:14:51.817Z,100010.97
2022-07-29T19:20:03.614Z,100016.34
2022-07-29T19:25:08.198Z,100018.94
2022-07-29T19:30:14.017Z,100025.81
2022-07-29T19:35:28.244Z,100018.81
2022-07-29T19:40:31.573Z,100012.31
2022-07-29T19:45:35.787Z,100018.72
2022-07-29T19:50:40.013Z,100010.81
2022-07-29T19:55:45.878Z,100018.41
2022-07-29T20:00:48.664Z,100018.88
2022-07-29T20:05:52.880Z,100017.38
2022-07-29T20:10:55.967Z,100028.56
2022-07-29T20:15:58.809Z,100024.75
2022-07-29T20:21:05.434Z,100028.69
2022-07-29T20:26:09.696Z,100020.66
2022-07-29T20:31:17.894Z,100029.19
2022-07-29T20:36:22.143Z,100031.03
2022-07-29T20:41:24.871Z,100022.34
2022-07-29T20:46:27.666Z,100037.31
2022-07-29T20:51:32.073Z,100037.31
2022-07-29T20:56:46.059Z,100042.94
2022-07-29T21:01:48.798Z,100046.91
2022-07-29T21:06:55.152Z,100064.78
2022-07-29T21:11:59.836Z,100068.16
2022-07-29T21:17:05.695Z,100063.38
2022-07-29T21:22:10.005Z,100062.00
2022-07-29T21:27:30.247Z,100064.91
2022-07-29T21:32:33.086Z,100076.25
2022-07-29T21:37:37.270Z,100071.94
2022-07-29T21:42:40.223Z,100071.78
2022-07-29T21:47:42.913Z,100083.53
2022-07-29T21:52:46.952Z,100090.91
2022-07-29T21:57:50.120Z,100086.44
2022-07-29T22:02:53.467Z,100089.94
2022-07-29T22:07:57.785Z,100091.19
2022-07-29T22:13:01.518Z,100105.03
2022-07-29T22:18:04.469Z,100100.81
2022-07-29T22:23:08.543Z,100092.63
2022-07-29T22:28:11.291Z,100098.19
2022-07-29T22:33:17.935Z,100098.94
2022-07-29T22:38:22.174Z,100104.44
2022-07-29T22:43:25.146Z,100118.84
2022-07-29T22:48:28.003Z,100112.22
2022-07-29T22:53:32.189Z,100117.19
2022-07-29T22:58:35.093Z,100117.94
2022-07-29T23:03:39.234Z,100128.88
2022-07-29T23:08:43.413Z,100121.31
2022-07-29T23:13:46.127Z,100122.81
2022-07-29T23:18:49.264Z,100128.13
2022-07-29T23:23:56.121Z,100130.75
2022-07-29T23:28:58.850Z,100123.16
2022-07-29T23:34:01.618Z,100129.34
2022-07-29T23:39:06.008Z,100126.06
2022-07-29T23:44:08.749Z,100127.19
2022-07-29T23:49:11.537Z,100140.41
2022-07-29T23:54:15.683Z,100136.34
2022-07-29T23:59:18.499Z,100132.66
